aviador You're here:

ZBAA Decoded Metar

BEIJING in CHINA
Report Time2018-01-18 13:30:00
UTC Time2018-01-18 13:55:37
Flight Rules mvfr MVFR
Wind080° at 2 kt
W.Decomp.*RWY 01: 0.5 kt HW 1.9 kt RCW
RWY 36: 0.1 kt HW 2.0 kt RCW
W.Rank080° ranks 23
Current wind is below 080° avg. (3.5)
Visibility5000 m
Phenomena:Haze
Clouds:N/A
Expected CloudBase > 2,400 ft AGL from Temp-Dew spread
CeilingNone
Temp-5°C (ISA -20)
Dew Point-11°C (63% RH)
AAT-8.8°C
QNH1024 hPa
Density Alt-2,690 ft
Elevation98 ft
Report Wrong Elevation
Raw Report
METAR ZBAA 181330Z 08001MPS 5000 HZ NSC M05/M11 Q1024 NOSIG=

Extra information for ZBAA:More info

Metar Taf Metar & Taf Last 4 Metars F.Rules Stats Wind Profile Meteogram Temp Stats Airport Information Weather charts Add Link Nearby VenuesMetar ALERT Operation Metar Decoded Social comments